Time;durP1;ratioP1;P1;durP2;ratioP2;P2;SDS_P1;SDS_P2;PMS_P1;PMS_P2;Temp;Humidity;BMP_temperature;BMP_pressure;BME280_temperature;BME280_humidity;BME280_pressure;Samples;Min_cycle;Max_cycle;Signal;HPM_P1;HPM_P2
2021/05/01 00:00:36;;;;;;;11.00;4.70;;;;;;;12.54;100.00;99690.24;1776376;80;21264;-78
2021/05/01 00:03:04;;;;;;;8.80;4.47;;;;;;;12.53;100.00;99686.36;1778041;80;21162;-78
2021/05/01 00:05:32;;;;;;;9.55;4.80;;;;;;;12.52;100.00;99686.89;1779173;80;21141;-79
2021/05/01 00:08:00;;;;;;;12.65;5.08;;;;;;;12.51;100.00;99690.62;1779175;80;21287;-78
2021/05/01 00:10:29;;;;;;;10.38;5.00;;;;;;;12.46;100.00;99684.09;1779162;80;21251;-79
2021/05/01 00:12:57;;;;;;;11.85;5.00;;;;;;;12.41;100.00;99694.67;1776806;80;21110;-78
2021/05/01 00:15:24;;;;;;;11.20;4.90;;;;;;;12.32;100.00;99708.86;1779035;80;21686;-78
2021/05/01 00:17:52;;;;;;;10.10;4.87;;;;;;;12.21;100.00;99709.36;1777063;80;21131;-77
2021/05/01 00:20:20;;;;;;;9.23;5.10;;;;;;;12.10;100.00;99711.52;1770137;81;21174;-78
2021/05/01 00:22:48;;;;;;;10.35;5.37;;;;;;;12.01;100.00;99707.23;1770498;81;21289;-77
2021/05/01 00:25:15;;;;;;;10.48;5.12;;;;;;;11.94;100.00;99711.73;1770202;81;21151;-77
2021/05/01 00:27:43;;;;;;;10.00;5.45;;;;;;;11.89;100.00;99708.71;1770420;81;21179;-77
2021/05/01 00:30:12;;;;;;;12.98;5.55;;;;;;;11.84;100.00;99709.78;1770789;80;21107;-77
2021/05/01 00:32:40;;;;;;;12.05;5.42;;;;;;;11.80;100.00;99699.01;1770472;81;21693;-79
2021/05/01 00:35:09;;;;;;;8.65;4.95;;;;;;;11.76;100.00;99693.95;1770245;81;21195;-78
2021/05/01 00:37:36;;;;;;;8.38;4.37;;;;;;;11.71;100.00;99695.55;1770487;81;21171;-78
2021/05/01 00:40:06;;;;;;;7.55;4.22;;;;;;;11.68;100.00;99689.98;1770395;81;21151;-78
2021/05/01 00:42:35;;;;;;;10.38;4.25;;;;;;;11.67;100.00;99691.52;1770240;81;21135;-78
2021/05/01 00:45:06;;;;;;;7.92;4.40;;;;;;;11.66;100.00;99699.33;1770291;80;21289;-77
2021/05/01 00:47:34;;;;;;;10.38;4.35;;;;;;;11.66;100.00;99700.69;1684922;85;21200;-78
2021/05/01 00:50:04;;;;;;;9.15;4.60;;;;;;;11.65;100.00;99709.33;1684900;85;21149;-78
2021/05/01 00:52:33;;;;;;;7.87;4.60;;;;;;;11.64;100.00;99713.58;1684783;85;21125;-77
2021/05/01 00:55:04;;;;;;;6.55;3.95;;;;;;;11.64;100.00;99710.87;1685067;85;21188;-77
2021/05/01 00:57:31;;;;;;;7.22;4.80;;;;;;;11.60;100.00;99710.40;1684979;85;21181;-77
2021/05/01 00:59:59;;;;;;;9.73;4.67;;;;;;;11.57;100.00;99720.24;1685226;85;21165;-78
2021/05/01 01:02:28;;;;;;;11.63;4.33;;;;;;;11.53;100.00;99720.30;1634945;85;21295;-77
2021/05/01 01:04:56;;;;;;;9.35;4.58;;;;;;;11.52;100.00;99719.95;1683190;85;21259;-76
2021/05/01 01:07:24;;;;;;;6.28;4.15;;;;;;;11.51;100.00;99719.61;1684979;85;21330;-77
2021/05/01 01:09:53;;;;;;;7.17;4.75;;;;;;;11.49;100.00;99723.02;1685271;85;21181;-77
2021/05/01 01:12:21;;;;;;;8.38;4.30;;;;;;;11.49;100.00;99723.02;1662224;85;21653;-79
2021/05/01 01:14:49;;;;;;;7.90;4.30;;;;;;;11.48;100.00;99720.83;1684759;85;21316;-78
2021/05/01 01:17:17;;;;;;;7.60;4.53;;;;;;;11.46;100.00;99722.06;1687577;84;21160;-78
2021/05/01 01:19:46;;;;;;;7.08;4.15;;;;;;;11.46;100.00;99744.55;1713401;84;21642;-77
2021/05/01 01:22:16;;;;;;;7.00;4.60;;;;;;;11.48;100.00;99740.31;1713395;84;21161;-77
2021/05/01 01:24:44;;;;;;;8.90;4.62;;;;;;;11.48;100.00;99741.66;1713377;84;21200;-76
2021/05/01 01:27:12;;;;;;;7.92;4.47;;;;;;;11.48;100.00;99741.66;1713498;84;21153;-78
2021/05/01 01:29:42;;;;;;;7.65;4.40;;;;;;;11.48;100.00;99743.84;1713393;84;21603;-76
2021/05/01 01:32:12;;;;;;;6.85;4.50;;;;;;;11.50;100.00;99753.98;1713820;84;21218;-78
2021/05/01 01:34:44;;;;;;;8.00;4.20;;;;;;;11.51;100.00;99746.20;1713358;84;21697;-78
2021/05/01 01:37:12;;;;;;;9.40;5.15;;;;;;;11.53;100.00;99751.43;1713674;84;21653;-77
2021/05/01 01:39:42;;;;;;;8.35;4.75;;;;;;;11.53;100.00;99750.08;1713527;84;21555;-76
2021/05/01 01:42:11;;;;;;;8.45;4.62;;;;;;;11.52;100.00;99755.16;1713568;84;21177;-76
2021/05/01 01:44:39;;;;;;;7.55;4.70;;;;;;;11.54;100.00;99756.67;1770276;79;21113;-78
2021/05/01 01:47:07;;;;;;;7.58;4.70;;;;;;;11.56;100.00;99755.09;1802107;80;21540;-78
2021/05/01 01:49:39;;;;;;;10.25;4.80;;;;;;;11.52;100.00;99755.16;1802096;79;21271;-76
2021/05/01 01:52:08;;;;;;;7.90;4.37;;;;;;;11.47;100.00;99758.39;1802009;79;21104;-76
2021/05/01 01:54:36;;;;;;;8.68;4.22;;;;;;;11.42;100.00;99759.48;1801838;79;21552;-77
2021/05/01 01:57:05;;;;;;;7.90;4.50;;;;;;;11.38;100.00;99758.15;1801802;80;21283;-75
2021/05/01 01:59:34;;;;;;;7.67;4.45;;;;;;;11.33;100.00;99763.27;1801879;80;21153;-77
2021/05/01 02:02:01;;;;;;;8.63;4.80;;;;;;;11.27;100.00;99746.42;1801977;79;21263;-77
2021/05/01 02:04:30;;;;;;;7.78;5.28;;;;;;;11.26;100.00;99756.42;1801914;79;21134;-76
2021/05/01 02:06:58;;;;;;;9.33;5.08;;;;;;;11.23;100.00;99750.01;1801843;80;21118;-77
2021/05/01 02:09:27;;;;;;;6.72;4.42;;;;;;;11.21;100.00;99756.12;1801956;79;21520;-76
2021/05/01 02:11:56;;;;;;;9.33;5.72;;;;;;;11.16;100.00;99750.41;1801853;79;21129;-77
2021/05/01 02:14:25;;;;;;;8.83;5.40;;;;;;;11.12;100.00;99770.71;1801806;80;21607;-76
2021/05/01 02:16:52;;;;;;;7.85;5.28;;;;;;;11.06;100.00;99770.94;1801959;80;21141;-77
2021/05/01 02:19:20;;;;;;;9.98;6.00;;;;;;;11.00;100.00;99765.73;1772292;79;21139;-77
2021/05/01 02:21:48;;;;;;;9.70;5.78;;;;;;;10.97;100.00;99759.84;1770444;81;21578;-77
2021/05/01 02:24:15;;;;;;;10.08;5.60;;;;;;;10.91;100.00;99756.53;1769962;80;21195;-77
2021/05/01 02:26:43;;;;;;;9.03;5.50;;;;;;;10.85;100.00;99754.00;1770073;81;21706;-77
2021/05/01 02:29:11;;;;;;;8.73;5.30;;;;;;;10.81;100.00;99762.16;1770372;81;21163;-77
2021/05/01 02:31:39;;;;;;;8.08;5.30;;;;;;;10.76;100.00;99760.50;1770419;81;21723;-76
2021/05/01 02:34:07;;;;;;;7.30;4.87;;;;;;;10.72;100.00;99760.53;1770434;80;21147;-76
2021/05/01 02:36:34;;;;;;;11.60;5.75;;;;;;;10.69;100.00;99764.94;1770422;81;21159;-76
2021/05/01 02:39:04;;;;;;;14.03;6.28;;;;;;;10.65;100.00;99767.16;1770601;81;21135;-76
2021/05/01 02:41:34;;;;;;;13.13;6.40;;;;;;;10.58;100.00;99764.31;1769894;81;21609;-76
2021/05/01 02:44:01;;;;;;;11.78;6.50;;;;;;;10.53;100.00;99772.12;1770555;81;21296;-75
2021/05/01 02:46:30;;;;;;;12.93;6.58;;;;;;;10.51;100.00;99776.03;1770079;81;21155;-76
2021/05/01 02:48:58;;;;;;;11.30;6.28;;;;;;;10.48;100.00;99779.91;1770192;80;21616;-77
2021/05/01 02:51:26;;;;;;;12.05;6.55;;;;;;;10.48;100.00;99775.03;1770218;81;21181;-77
2021/05/01 02:53:53;;;;;;;13.15;6.50;;;;;;;10.47;100.00;99781.47;1770207;81;21159;-77
2021/05/01 02:56:22;;;;;;;9.90;6.53;;;;;;;10.47;100.00;99790.41;1770410;81;21300;-77
2021/05/01 02:58:50;;;;;;;14.58;6.67;;;;;;;10.46;100.00;99791.41;1770479;81;21589;-77
2021/05/01 03:01:18;;;;;;;12.43;6.97;;;;;;;10.46;100.00;99795.47;1770218;80;21147;-77
2021/05/01 03:03:46;;;;;;;16.05;8.25;;;;;;;10.45;100.00;99808.16;1770132;81;21139;-77
2021/05/01 03:06:15;;;;;;;14.60;8.13;;;;;;;10.45;100.00;99809.50;1771210;80;21179;-77
2021/05/01 03:08:43;;;;;;;14.93;6.95;;;;;;;10.45;100.00;99812.73;1770313;80;21150;-77
2021/05/01 03:11:11;;;;;;;11.65;6.70;;;;;;;10.43;100.00;99832.34;1770323;81;21304;-78
2021/05/01 03:13:39;;;;;;;13.45;6.90;;;;;;;10.42;100.00;99840.09;1770266;80;21142;-77
2021/05/01 03:16:08;;;;;;;11.53;6.67;;;;;;;10.42;100.00;99832.83;1770102;81;21138;-78
2021/05/01 03:18:36;;;;;;;12.35;6.90;;;;;;;10.41;100.00;99832.51;1777370;80;21125;-77
2021/05/01 03:21:04;;;;;;;11.95;6.20;;;;;;;10.41;100.00;99831.64;1781495;80;21157;-78
2021/05/01 03:23:32;;;;;;;10.35;5.40;;;;;;;10.41;100.00;99828.45;1781359;80;21141;-78
2021/05/01 03:26:00;;;;;;;10.28;6.35;;;;;;;10.42;100.00;99819.83;1781429;80;21178;-77
2021/05/01 03:28:28;;;;;;;10.85;6.70;;;;;;;10.43;100.00;99826.94;1780982;80;21547;-76
2021/05/01 03:30:56;;;;;;;11.22;6.50;;;;;;;10.43;100.00;99837.75;1781602;80;21189;-77
2021/05/01 03:33:26;;;;;;;11.03;6.35;;;;;;;10.43;100.00;99834.52;1781092;80;21105;-75
2021/05/01 03:35:55;;;;;;;10.25;5.92;;;;;;;10.43;100.00;99832.34;1781778;80;21559;-76
2021/05/01 03:38:23;;;;;;;12.93;6.33;;;;;;;10.45;100.00;99839.24;1781499;80;21102;-76
2021/05/01 03:40:52;;;;;;;17.40;7.15;;;;;;;10.47;100.00;99834.18;1781443;80;21102;-77
2021/05/01 03:43:20;;;;;;;14.10;6.22;;;;;;;10.47;100.00;99820.66;1781427;80;21156;-78
2021/05/01 03:45:49;;;;;;;13.68;6.05;;;;;;;10.48;100.00;99829.09;1776877;80;21161;-77
2021/05/01 03:48:17;;;;;;;9.73;5.92;;;;;;;10.50;100.00;99825.70;1760982;81;21130;-77
2021/05/01 03:50:46;;;;;;;10.93;5.83;;;;;;;10.53;100.00;99832.11;1761517;81;21276;-78
2021/05/01 03:53:14;;;;;;;10.80;6.33;;;;;;;10.55;100.00;99833.64;1761086;81;21560;-76
2021/05/01 03:55:42;;;;;;;10.28;6.00;;;;;;;10.57;100.00;99835.66;1760978;81;21106;-77
2021/05/01 03:58:10;;;;;;;11.55;6.45;;;;;;;10.60;100.00;99837.98;1760940;81;21170;-78
2021/05/01 04:00:38;;;;;;;9.60;6.35;;;;;;;10.65;100.00;99840.17;1761143;81;21312;-76
2021/05/01 04:03:06;;;;;;;12.45;7.03;;;;;;;10.69;100.00;99840.14;1761101;81;21138;-78
2021/05/01 04:05:33;;;;;;;12.78;6.75;;;;;;;10.72;100.00;99842.50;1760968;81;21146;-78
2021/05/01 04:08:01;;;;;;;12.05;6.45;;;;;;;10.77;100.00;99848.22;1761179;81;21568;-77
2021/05/01 04:10:33;;;;;;;13.88;7.47;;;;;;;10.82;100.00;99849.05;1761055;81;21173;-76
2021/05/01 04:13:01;;;;;;;13.67;7.90;;;;;;;10.87;100.00;99842.60;1761610;81;21134;-78
2021/05/01 04:15:31;;;;;;;14.30;7.75;;;;;;;10.93;100.00;99847.28;1760986;81;21425;-76
2021/05/01 04:17:59;;;;;;;12.15;6.95;;;;;;;10.98;100.00;99846.77;1760991;81;21124;-78
2021/05/01 04:20:26;;;;;;;12.98;7.12;;;;;;;11.04;100.00;99842.50;1760702;81;21160;-76
2021/05/01 04:22:54;;;;;;;12.93;6.90;;;;;;;11.10;100.00;99852.09;1760117;81;21222;-78
2021/05/01 04:25:22;;;;;;;13.22;7.67;;;;;;;11.16;100.00;99851.37;1760256;81;21601;-75
2021/05/01 04:27:50;;;;;;;12.50;7.28;;;;;;;11.24;100.00;99847.75;1760196;81;21308;-77
2021/05/01 04:30:20;;;;;;;10.40;6.45;;;;;;;11.32;100.00;99850.93;1760566;81;21155;-76
2021/05/01 04:32:49;;;;;;;12.98;7.42;;;;;;;11.42;100.00;99854.73;1760821;81;21273;-77
2021/05/01 04:35:17;;;;;;;12.33;6.95;;;;;;;11.49;100.00;99847.56;1760506;81;21266;-76
2021/05/01 04:37:45;;;;;;;13.38;8.10;;;;;;;11.57;100.00;99851.58;1760224;81;21159;-76
2021/05/01 04:40:13;;;;;;;16.27;8.35;;;;;;;11.63;100.00;99849.99;1760252;81;21695;-77
2021/05/01 04:42:47;;;;;;;13.95;8.00;;;;;;;11.72;100.00;99855.17;1760353;81;21182;-79
2021/05/01 04:45:13;;;;;;;13.88;7.95;;;;;;;11.86;100.00;99851.31;1757734;81;21262;-77
2021/05/01 04:47:41;;;;;;;16.65;8.40;;;;;;;11.99;100.00;99849.34;1754717;81;21151;-77
2021/05/01 04:50:12;;;;;;;16.87;8.80;;;;;;;12.11;100.00;99847.38;1751829;82;21550;-77
2021/05/01 04:52:40;;;;;;;17.00;8.83;;;;;;;12.22;100.00;99842.00;1745116;82;21569;-76
2021/05/01 04:57:37;;;;;;;15.63;8.75;;;;;;;12.38;100.00;99844.17;1705685;84;21152;-77
2021/05/01 05:00:07;;;;;;;20.32;9.58;;;;;;;12.45;100.00;99845.97;1705688;84;21278;-78
2021/05/01 05:02:35;;;;;;;18.40;10.47;;;;;;;12.56;100.00;99844.64;1705443;84;21196;-77
2021/05/01 05:05:04;;;;;;;17.17;9.58;;;;;;;12.64;100.00;99835.55;1706387;84;21161;-78
2021/05/01 05:07:32;;;;;;;17.10;10.48;;;;;;;12.74;100.00;99838.81;1705692;84;21133;-76
2021/05/01 05:10:00;;;;;;;22.15;11.30;;;;;;;12.84;100.00;99834.45;1705700;84;21192;-78
2021/05/01 05:12:28;;;;;;;19.52;11.12;;;;;;;12.93;100.00;99830.59;1705617;84;21167;-77
2021/05/01 05:14:55;;;;;;;20.08;10.93;;;;;;;13.02;100.00;99842.17;1705771;84;21129;-77
2021/05/01 05:17:23;;;;;;;15.68;9.68;;;;;;;13.13;100.00;99834.87;1706660;83;21149;-78
2021/05/01 05:19:51;;;;;;;16.85;9.98;;;;;;;13.27;100.00;99839.92;1713767;84;21137;-78
2021/05/01 05:22:18;;;;;;;15.75;9.93;;;;;;;13.38;100.00;99841.31;1713510;84;21169;-77
2021/05/01 05:24:46;;;;;;;17.90;10.55;;;;;;;13.54;100.00;99843.75;1713468;84;21129;-76
2021/05/01 05:27:14;;;;;;;16.73;9.83;;;;;;;13.70;100.00;99836.38;1713420;84;21165;-77
2021/05/01 05:29:49;;;;;;;18.30;9.50;;;;;;;13.81;100.00;99835.33;1713522;84;21192;-77
2021/05/01 05:32:22;;;;;;;17.42;10.70;;;;;;;13.96;100.00;99827.06;1870330;76;28141;-76
2021/05/01 05:34:51;;;;;;;17.70;10.55;;;;;;;14.03;100.00;99822.50;1744547;81;21162;-78
2021/05/01 05:37:20;;;;;;;16.75;9.45;;;;;;;14.17;100.00;99828.05;1743877;82;21159;-78
2021/05/01 05:39:49;;;;;;;16.12;9.43;;;;;;;14.31;100.00;99828.97;1744436;82;21593;-78
2021/05/01 05:42:19;;;;;;;15.63;8.83;;;;;;;14.46;100.00;99830.19;1744469;82;21206;-77
2021/05/01 05:44:49;;;;;;;15.32;9.65;;;;;;;14.61;100.00;99824.13;1744255;82;21154;-75
2021/05/01 05:47:18;;;;;;;18.05;9.80;;;;;;;14.70;100.00;99821.54;1743886;82;21135;-76
2021/05/01 05:49:47;;;;;;;19.90;9.88;;;;;;;14.76;100.00;99819.34;1744267;82;21284;-75
2021/05/01 05:52:15;;;;;;;15.65;9.33;;;;;;;14.84;100.00;99822.43;1744198;82;21187;-74
2021/05/01 05:54:43;;;;;;;31.55;22.50;;;;;;;14.97;100.00;99828.43;1744035;81;21187;-75
2021/05/01 05:57:12;;;;;;;20.25;11.30;;;;;;;15.16;100.00;99829.53;1744088;82;21178;-75
2021/05/01 05:59:43;;;;;;;18.75;9.83;;;;;;;15.35;100.00;99826.50;1743958;82;21197;-78
2021/05/01 06:02:16;;;;;;;14.55;8.58;;;;;;;15.62;100.00;99815.66;1744179;82;21520;-76
2021/05/01 06:05:03;;;;;;;15.80;8.75;;;;;;;15.66;100.00;99817.73;1814888;77;23065;-76
2021/05/01 06:07:40;;;;;;;15.25;9.13;;;;;;;15.92;100.00;99822.91;1786915;80;21279;-78
2021/05/01 06:10:10;;;;;;;17.20;9.50;;;;;;;15.92;100.00;99822.91;1738260;82;21608;-76
2021/05/01 06:12:40;;;;;;;17.00;9.45;;;;;;;16.02;100.00;99828.73;1727598;83;21158;-76
2021/05/01 06:15:10;;;;;;;17.23;9.33;;;;;;;16.12;100.00;99836.50;1722486;83;21247;-77
2021/05/01 06:17:38;;;;;;;17.35;9.40;;;;;;;16.31;100.00;99830.16;1727141;83;21169;-77
2021/05/01 06:20:08;;;;;;;18.62;10.08;;;;;;;16.47;100.00;99823.94;1721278;83;21689;-79
2021/05/01 06:22:36;;;;;;;19.20;9.73;;;;;;;16.61;100.00;99832.89;1726274;83;21299;-80
2021/05/01 06:25:13;;;;;;;16.77;9.38;;;;;;;16.84;100.00;99833.27;1853299;77;21230;-78
2021/05/01 06:27:41;;;;;;;16.00;9.98;;;;;;;16.97;100.00;99839.19;1822776;79;21147;-77
2021/05/01 06:30:11;;;;;;;17.80;9.90;;;;;;;17.19;100.00;99836.12;1823700;79;21104;-79
2021/05/01 06:32:41;;;;;;;19.40;10.48;;;;;;;17.34;100.00;99838.03;1818946;79;21254;-79
2021/05/01 06:35:10;;;;;;;18.75;10.28;;;;;;;17.52;100.00;99843.27;1823519;79;21666;-80
2021/05/01 06:37:41;;;;;;;19.12;10.08;;;;;;;17.62;100.00;99847.72;1823718;79;21128;-82
2021/05/01 06:40:16;;;;;;;18.35;9.58;;;;;;;17.78;100.00;99845.80;1823462;78;21701;-81
2021/05/01 06:43:00;;;;;;;18.48;10.90;;;;;;;17.83;100.00;99847.34;1822812;79;21314;-79
2021/05/01 06:45:27;;;;;;;16.45;9.60;;;;;;;17.69;100.00;99844.91;1820793;79;21258;-79
2021/05/01 06:48:03;;;;;;;17.77;9.80;;;;;;;17.74;100.00;99850.05;1822625;79;21290;-80
2021/05/01 06:50:32;;;;;;;17.73;9.70;;;;;;;17.89;100.00;99854.38;1806489;79;21173;-80
2021/05/01 06:53:00;;;;;;;17.25;9.65;;;;;;;17.95;100.00;99855.66;1806162;79;21578;-82
2021/05/01 06:55:31;;;;;;;29.23;17.32;;;;;;;18.06;100.00;99844.55;1805850;79;21757;-78
2021/05/01 06:58:05;;;;;;;18.67;10.53;;;;;;;18.27;100.00;99845.16;1842691;77;22485;-79
2021/05/01 07:00:33;;;;;;;15.30;9.75;;;;;;;18.41;100.00;99846.69;1756538;81;21135;-80
2021/05/01 07:03:09;;;;;;;19.25;11.00;;;;;;;18.66;100.00;99842.53;1766128;81;21140;-78
2021/05/01 07:05:37;;;;;;;18.77;10.85;;;;;;;18.87;100.00;99835.75;1756354;82;21154;-77
2021/05/01 07:08:06;;;;;;;18.65;11.08;;;;;;;19.01;100.00;99835.59;1766089;81;21290;-78
2021/05/01 07:10:34;;;;;;;18.37;10.93;;;;;;;19.07;100.00;99835.50;1756406;82;21142;-79
2021/05/01 07:13:02;;;;;;;18.32;10.80;;;;;;;19.04;100.00;99841.44;1765780;81;21144;-79
2021/05/01 07:15:30;;;;;;;17.50;11.00;;;;;;;19.07;100.00;99845.60;1703535;82;21607;-77
2021/05/01 07:17:58;;;;;;;19.12;10.28;;;;;;;19.27;100.00;99842.06;1765932;81;21141;-78
2021/05/01 07:20:26;;;;;;;23.87;11.28;;;;;;;19.48;100.00;99842.06;1756577;82;21296;-78
2021/05/01 07:22:54;;;;;;;18.37;10.38;;;;;;;19.64;100.00;99846.04;1766165;81;21314;-84
2021/05/01 07:25:24;;;;;;;20.68;10.40;;;;;;;19.70;100.00;99842.34;1752724;82;21300;-79
2021/05/01 07:28:03;;;;;;;18.55;10.58;;;;;;;19.75;100.00;99845.79;1766401;81;21180;-79
2021/05/01 07:30:41;;;;;;;20.10;10.68;;;;;;;19.85;100.00;99841.10;1756624;82;21786;-79
2021/05/01 07:33:14;;;;;;;17.65;9.98;;;;;;;19.88;100.00;99837.35;1766052;81;21704;-78
2021/05/01 07:35:43;;;;;;;16.90;10.32;;;;;;;19.95;100.00;99839.95;1756207;82;21283;-77
2021/05/01 07:38:12;;;;;;;18.20;11.25;;;;;;;20.14;100.00;99843.43;1736284;81;21147;-79
2021/05/01 07:40:40;;;;;;;18.37;10.00;;;;;;;20.32;100.00;99843.83;1755980;82;21284;-77
2021/05/01 07:43:09;;;;;;;18.32;10.35;;;;;;;20.30;100.00;99840.50;1765832;81;21610;-75
2021/05/01 07:45:37;;;;;;;18.07;10.13;;;;;;;20.29;100.00;99851.17;1755998;82;21573;-77
2021/05/01 07:48:05;;;;;;;17.02;10.35;;;;;;;20.33;100.00;99852.38;1765870;81;21689;-74
2021/05/01 07:50:34;;;;;;;16.97;10.05;;;;;;;20.45;100.00;99852.34;1726725;82;21127;-75
2021/05/01 07:53:02;;;;;;;16.32;8.95;;;;;;;20.55;100.00;99854.50;1765752;81;21156;-74
2021/05/01 07:55:30;;;;;;;18.02;8.63;;;;;;;20.72;100.00;99860.95;1756090;82;21781;-74
2021/05/01 07:57:58;;;;;;;19.85;10.35;;;;;;;21.02;100.00;99854.42;1749110;81;21334;-79
2021/05/01 08:00:26;;;;;;;17.48;10.08;;;;;;;21.30;100.00;99855.48;1740120;82;21289;-77
2021/05/01 08:02:54;;;;;;;18.05;9.40;;;;;;;21.46;100.00;99851.13;1808625;79;21129;-78
2021/05/01 08:05:22;;;;;;;17.87;9.43;;;;;;;21.64;100.00;99855.56;1808800;79;21140;-79
2021/05/01 08:07:49;;;;;;;17.27;10.10;;;;;;;21.77;100.00;99852.50;1740297;82;21539;-80
2021/05/01 08:10:17;;;;;;;17.57;9.98;;;;;;;21.89;100.00;99853.25;1733766;82;21240;-79
2021/05/01 08:12:46;;;;;;;17.62;9.90;;;;;;;21.99;100.00;99847.92;1739660;82;21279;-78
2021/05/01 08:15:16;;;;;;;21.17;13.88;;;;;;;22.21;100.00;99849.07;1724077;82;21283;-80
2021/05/01 08:17:44;;;;;;;20.77;10.90;;;;;;;22.35;100.00;99844.34;1716875;83;21733;-80
2021/05/01 08:20:14;;;;;;;20.17;11.57;;;;;;;22.40;100.00;99842.74;1717456;83;21146;-84
2021/05/01 08:22:44;;;;;;;19.67;11.97;;;;;;;22.46;100.00;99844.50;1719456;82;21145;-84
2021/05/01 08:25:12;;;;;;;22.07;11.97;;;;;;;22.47;100.00;99844.77;1780189;80;21139;-79
2021/05/01 08:27:41;;;;;;;17.80;11.53;;;;;;;22.47;100.00;99843.39;1783692;80;21693;-77
2021/05/01 08:30:17;;;;;;;16.45;9.10;;;;;;;22.64;100.00;99846.11;1785477;80;21510;-77
2021/05/01 08:32:47;;;;;;;18.10;11.08;;;;;;;22.60;100.00;99845.79;1782712;80;21188;-79
2021/05/01 08:35:16;;;;;;;18.85;11.15;;;;;;;22.68;100.00;99847.25;1785930;80;21230;-76
2021/05/01 08:37:45;;;;;;;16.12;10.50;;;;;;;22.93;100.00;99839.88;1782558;80;21143;-74
2021/05/01 08:40:16;;;;;;;24.20;17.73;;;;;;;23.06;100.00;99838.11;1785293;80;21116;-72
2021/05/01 08:42:46;;;;;;;25.95;18.35;;;;;;;23.09;100.00;99843.67;1788034;80;21583;-73
2021/05/01 08:45:17;;;;;;;20.48;14.68;;;;;;;22.96;100.00;99842.64;1778211;80;21172;-74
2021/05/01 08:47:47;;;;;;;24.07;15.38;;;;;;;23.08;100.00;99842.81;1776364;80;21712;-74
2021/05/01 08:50:31;;;;;;;22.58;15.68;;;;;;;23.37;100.00;99850.83;1770878;80;21156;-75
2021/05/01 08:53:01;;;;;;;24.37;16.67;;;;;;;23.44;100.00;99851.48;1774096;81;21123;-76
2021/05/01 08:55:35;;;;;;;22.80;15.38;;;;;;;23.57;100.00;99849.36;1775742;80;21146;-76
2021/05/01 08:58:04;;;;;;;22.95;14.60;;;;;;;23.53;100.00;99850.99;1770645;79;21772;-76
2021/05/01 09:00:33;;;;;;;22.42;16.70;;;;;;;23.45;100.00;99852.31;1767871;80;21170;-77
2021/05/01 09:03:03;;;;;;;23.10;15.83;;;;;;;23.44;100.00;99855.63;1765794;80;21284;-75
2021/05/01 09:05:31;;;;;;;31.30;22.20;;;;;;;23.51;100.00;99851.25;1770295;80;21114;-75
2021/05/01 09:08:01;;;;;;;30.77;20.15;;;;;;;23.65;100.00;99848.34;1752194;81;21313;-77
2021/05/01 09:10:41;;;;;;;28.05;21.37;;;;;;;23.92;100.00;99845.28;1731299;80;21180;-77
2021/05/01 09:13:21;;;;;;;26.27;20.57;;;;;;;23.97;100.00;99851.67;1770219;80;21128;-77
2021/05/01 09:16:05;;;;;;;34.75;25.32;;;;;;;23.77;100.00;99848.73;1823475;77;22812;-74
2021/05/01 09:18:55;;;;;;;32.55;23.38;;;;;;;23.37;100.00;99853.59;1790567;79;21114;-74
2021/05/01 09:21:26;;;;;;;30.95;23.95;;;;;;;22.88;100.00;99857.73;1755395;81;21281;-73
2021/05/01 09:23:54;;;;;;;35.95;28.85;;;;;;;22.82;100.00;99854.05;1782536;79;21303;-75
2021/05/01 09:26:42;;;;;;;37.15;28.30;;;;;;;22.99;100.00;99852.61;1785912;79;21251;-75
2021/05/01 09:29:12;;;;;;;41.80;30.77;;;;;;;23.21;100.00;99857.29;1790261;79;21263;-77
2021/05/01 09:31:44;;;;;;;34.13;26.52;;;;;;;23.37;100.00;99861.88;1738986;79;21203;-75
2021/05/01 09:34:11;;;;;;;40.12;29.15;;;;;;;23.62;100.00;99856.31;1783130;79;21094;-76
2021/05/01 09:36:40;;;;;;;36.53;25.97;;;;;;;23.99;100.00;99850.89;1775585;79;21126;-75
2021/05/01 09:39:11;;;;;;;35.68;26.82;;;;;;;24.25;100.00;99853.81;1783796;79;21295;-74
2021/05/01 09:41:43;;;;;;;36.10;27.48;;;;;;;24.49;100.00;99854.77;1744111;81;21137;-74
2021/05/01 09:44:15;;;;;;;36.40;28.85;;;;;;;24.57;100.00;99858.45;1785973;79;21319;-78
2021/05/01 09:46:47;;;;;;;33.45;26.17;;;;;;;24.60;100.00;99862.07;1789314;79;21320;-78
2021/05/01 09:49:32;;;;;;;33.28;26.05;;;;;;;24.67;100.00;99858.52;1749348;81;21279;-74
2021/05/01 09:52:11;;;;;;;36.28;28.07;;;;;;;24.69;100.00;99861.83;1819950;77;22223;-76
2021/05/01 09:54:47;;;;;;;34.88;25.57;;;;;;;24.52;100.00;99859.22;1795257;79;21250;-73
2021/05/01 09:57:20;;;;;;;30.95;19.85;;;;;;;24.38;100.00;99861.65;1800347;79;21136;-74
2021/05/01 09:59:54;;;;;;;31.30;18.48;;;;;;;24.52;100.00;99861.16;1777339;80;21145;-74
2021/05/01 10:02:31;;;;;;;23.92;14.85;;;;;;;24.81;100.00;99863.01;1774202;80;21148;-76
2021/05/01 10:05:12;;;;;;;23.35;13.15;;;;;;;24.90;100.00;99856.41;1770940;80;21259;-73
2021/05/01 10:07:41;;;;;;;21.00;10.95;;;;;;;24.80;100.00;99857.18;1773564;80;21140;-76
2021/05/01 10:10:10;;;;;;;28.50;22.48;;;;;;;24.55;100.00;99851.81;1779471;80;21165;-75
2021/05/01 10:12:40;;;;;;;18.48;9.65;;;;;;;24.46;100.00;99861.69;1777030;80;21148;-75
2021/05/01 10:15:24;;;;;;;13.72;6.67;;;;;;;24.81;100.00;99863.01;1781424;80;21278;-74
2021/05/01 10:17:54;;;;;;;14.45;6.97;;;;;;;25.20;100.00;99860.64;1694960;83;21129;-74
2021/05/01 10:20:22;;;;;;;15.85;6.80;;;;;;;25.55;100.00;99870.17;1725867;83;21168;-75
2021/05/01 10:22:50;;;;;;;14.63;7.35;;;;;;;25.80;96.41;99874.06;1728890;83;21156;-75
2021/05/01 10:25:28;;;;;;;13.62;6.90;;;;;;;26.01;95.54;99874.08;1681926;83;21630;-74
2021/05/01 10:28:01;;;;;;;11.08;6.35;;;;;;;26.26;100.00;99867.67;1728957;83;21171;-75
2021/05/01 10:30:42;;;;;;;14.80;6.58;;;;;;;26.74;96.24;99870.94;1814583;77;22795;-73
2021/05/01 10:33:34;;;;;;;12.70;7.05;;;;;;;26.99;93.59;99879.70;1784651;80;21310;-74
2021/05/01 10:36:24;;;;;;;14.60;7.05;;;;;;;27.10;89.72;99877.71;1786480;80;21318;-76
2021/05/01 10:39:02;;;;;;;15.88;7.87;;;;;;;26.97;86.28;99876.39;1786533;80;21161;-74
2021/05/01 10:41:32;;;;;;;15.63;6.70;;;;;;;26.95;86.26;99870.84;1786465;80;21574;-73
2021/05/01 10:44:01;;;;;;;11.90;6.05;;;;;;;26.99;83.12;99873.34;1786675;80;21531;-72
2021/05/01 10:46:34;;;;;;;9.58;5.67;;;;;;;27.12;80.27;99882.98;1786570;80;21160;-74
2021/05/01 10:49:04;;;;;;;11.55;5.75;;;;;;;26.95;78.60;99871.69;1786529;80;21256;-74
2021/05/01 10:51:42;;;;;;;9.73;5.70;;;;;;;26.68;79.11;99878.45;1786640;80;21267;-75
2021/05/01 10:54:16;;;;;;;9.45;5.17;;;;;;;26.61;83.84;99873.73;1786652;80;21168;-73
2021/05/01 10:56:54;;;;;;;11.03;5.97;;;;;;;26.64;85.98;99868.19;1786339;80;21587;-76
2021/05/01 10:59:32;;;;;;;8.60;5.17;;;;;;;26.78;90.16;99875.36;1740075;82;21166;-74
2021/05/01 11:02:01;;;;;;;9.85;5.80;;;;;;;27.16;88.85;99882.14;1740406;82;21629;-75
2021/05/01 11:04:31;;;;;;;11.85;6.60;;;;;;;27.27;80.98;99880.98;1715288;82;21134;-74
2021/05/01 11:07:19;;;;;;;12.25;6.20;;;;;;;26.91;83.06;99878.89;1739944;82;21701;-75
2021/05/01 11:09:49;;;;;;;9.88;5.50;;;;;;;26.71;87.53;99875.65;1740275;82;21195;-74
2021/05/01 11:12:24;;;;;;;10.32;5.78;;;;;;;26.77;87.53;99864.80;1852822;77;22611;-73
2021/05/01 11:15:10;;;;;;;11.85;6.22;;;;;;;26.90;82.41;99866.98;1822308;79;21112;-75
2021/05/01 11:17:49;;;;;;;13.45;7.12;;;;;;;27.05;80.49;99877.16;1822270;78;21633;-74
2021/05/01 11:20:18;;;;;;;9.30;5.87;;;;;;;26.84;83.19;99868.12;1818726;79;21530;-73
2021/05/01 11:22:52;;;;;;;10.78;5.30;;;;;;;26.64;85.34;99868.19;1822235;79;21269;-73
2021/05/01 11:25:22;;;;;;;9.45;5.03;;;;;;;26.76;85.86;99870.66;1822119;79;21269;-74
2021/05/01 11:27:53;;;;;;;8.78;4.67;;;;;;;26.92;82.13;99860.33;1822154;79;21128;-73
2021/05/01 11:30:23;;;;;;;9.80;4.10;;;;;;;27.06;76.01;99866.92;1823113;79;21522;-83
2021/05/01 11:32:51;;;;;;;8.80;4.42;;;;;;;27.27;79.00;99860.73;1823045;79;21278;-83